Time;durP1;ratioP1;P1;durP2;ratioP2;P2;SDS_P1;SDS_P2;PMS_P1;PMS_P2;Temp;Humidity;BMP_temperature;BMP_pressure;BME280_temperature;BME280_humidity;BME280_pressure;Samples;Min_cycle;Max_cycle;Signal;HPM_P1;HPM_P2
2021/06/26 00:01:34;;;;;;;2.72;1.10;;;19.10;88.80;;;;;;5012410;28;20046;-69
2021/06/26 00:04:39;;;;;;;3.38;1.45;;;19.00;89.00;;;;;;5012571;28;20042;-68
2021/06/26 00:07:43;;;;;;;3.47;1.25;;;19.00;89.70;;;;;;5012403;28;20547;-69
2021/06/26 00:10:48;;;;;;;2.92;1.20;;;18.90;89.90;;;;;;4998620;28;20033;-69
2021/06/26 00:13:52;;;;;;;7.72;1.40;;;18.90;90.30;;;;;;5012491;28;20030;-68
2021/06/26 00:16:56;;;;;;;5.15;1.30;;;18.90;90.40;;;;;;5023206;28;20049;-69
2021/06/26 00:20:00;;;;;;;4.35;1.30;;;18.90;89.80;;;;;;5000978;28;20038;-69
2021/06/26 00:23:05;;;;;;;3.40;1.02;;;18.80;89.80;;;;;;5012096;28;20038;-69
2021/06/26 00:26:09;;;;;;;3.17;1.40;;;18.80;89.90;;;;;;5012317;28;20049;-69
2021/06/26 00:29:13;;;;;;;2.67;1.50;;;18.70;90.20;;;;;;5026051;28;20040;-69
2021/06/26 00:32:17;;;;;;;3.15;1.30;;;18.70;90.20;;;;;;5023506;28;20046;-68
2021/06/26 00:35:22;;;;;;;2.25;1.25;;;18.70;90.30;;;;;;5001283;28;20034;-69
2021/06/26 00:38:26;;;;;;;5.50;1.25;;;18.60;90.40;;;;;;5012298;28;20396;-69
2021/06/26 00:41:30;;;;;;;3.42;1.40;;;18.50;90.70;;;;;;5012053;28;20499;-69
2021/06/26 00:44:38;;;;;;;3.95;1.20;;;18.40;91.00;;;;;;5011893;28;20373;-69
2021/06/26 00:47:43;;;;;;;3.95;1.60;;;18.40;91.10;;;;;;5024185;28;20041;-69
2021/06/26 00:50:47;;;;;;;3.25;1.30;;;18.30;91.30;;;;;;5010782;28;20041;-68
2021/06/26 00:53:52;;;;;;;5.55;1.75;;;18.20;91.30;;;;;;5011804;28;20026;-69
2021/06/26 00:56:57;;;;;;;4.20;1.60;;;18.10;91.50;;;;;;5030083;28;20044;-69
2021/06/26 01:00:04;;;;;;;3.00;1.10;;;18.10;91.60;;;;;;5014944;28;20041;-68
2021/06/26 01:03:09;;;;;;;2.58;1.00;;;18.00;91.70;;;;;;5011638;28;20045;-69
2021/06/26 01:06:14;;;;;;;1.35;1.05;;;17.90;91.70;;;;;;5011652;28;20056;-69
2021/06/26 01:09:19;;;;;;;3.10;0.90;;;17.80;91.60;;;;;;4999879;28;20053;-69
2021/06/26 01:12:24;;;;;;;5.32;1.42;;;17.70;91.70;;;;;;5016050;28;20056;-69
2021/06/26 01:15:28;;;;;;;2.13;1.20;;;17.70;91.80;;;;;;5014102;28;20048;-69
2021/06/26 01:18:32;;;;;;;1.85;1.00;;;17.60;91.80;;;;;;5012501;28;20053;-69
2021/06/26 01:21:36;;;;;;;3.40;1.02;;;17.50;92.00;;;;;;4998903;28;20050;-69
2021/06/26 01:24:41;;;;;;;3.38;1.00;;;17.50;91.90;;;;;;5015918;28;20056;-69
2021/06/26 01:27:45;;;;;;;2.30;0.90;;;17.40;91.80;;;;;;5014763;28;20049;-69
2021/06/26 01:30:49;;;;;;;1.58;0.95;;;17.40;92.20;;;;;;5010369;28;20049;-69
2021/06/26 01:33:53;;;;;;;4.60;1.38;;;17.40;92.00;;;;;;5001900;28;20053;-68
2021/06/26 01:36:57;;;;;;;3.50;1.00;;;17.40;92.00;;;;;;5010969;28;20038;-69
2021/06/26 01:40:01;;;;;;;5.72;1.20;;;17.40;92.10;;;;;;5015558;28;20040;-68
2021/06/26 01:43:10;;;;;;;2.60;1.17;;;17.40;92.20;;;;;;5028019;28;20045;-69
2021/06/26 01:46:15;;;;;;;3.75;1.30;;;17.40;92.00;;;;;;5011158;28;20047;-68
2021/06/26 01:49:19;;;;;;;2.40;1.10;;;17.40;92.00;;;;;;5022803;28;20037;-68
2021/06/26 01:52:23;;;;;;;3.05;1.17;;;17.30;92.20;;;;;;5019632;28;20398;-68
2021/06/26 01:55:28;;;;;;;2.50;1.20;;;17.20;92.50;;;;;;5003637;28;20048;-69
2021/06/26 01:58:32;;;;;;;2.42;1.17;;;17.10;92.80;;;;;;5016182;28;20036;-68
2021/06/26 02:01:36;;;;;;;3.42;0.73;;;17.00;92.30;;;;;;5029387;28;20054;-68
2021/06/26 02:04:40;;;;;;;2.78;0.85;;;17.00;90.60;;;;;;5010614;28;20505;-68
2021/06/26 02:07:45;;;;;;;4.10;0.95;;;17.10;89.50;;;;;;5007898;28;20127;-68
2021/06/26 02:10:49;;;;;;;2.45;0.80;;;17.00;89.80;;;;;;5010414;28;20032;-68
2021/06/26 02:13:54;;;;;;;1.35;0.90;;;16.90;90.90;;;;;;5030288;28;20040;-68
2021/06/26 02:16:59;;;;;;;2.38;0.85;;;16.90;91.40;;;;;;5011548;28;20404;-68
2021/06/26 02:20:05;;;;;;;1.95;0.98;;;16.80;92.40;;;;;;5010428;28;20182;-68
2021/06/26 02:23:09;;;;;;;5.03;1.20;;;16.60;93.30;;;;;;5010454;28;20504;-69
2021/06/26 02:26:13;;;;;;;6.30;1.50;;;16.50;93.70;;;;;;4991264;28;20046;-68
2021/06/26 02:29:17;;;;;;;4.85;1.30;;;16.50;94.10;;;;;;4991008;28;20374;-68
2021/06/26 02:32:21;;;;;;;3.58;1.20;;;16.40;94.40;;;;;;4990215;28;20529;-68
2021/06/26 02:35:25;;;;;;;4.00;1.25;;;16.30;94.60;;;;;;5001055;28;20030;-68
2021/06/26 02:38:30;;;;;;;4.25;1.58;;;16.30;94.80;;;;;;4990537;28;20046;-68
2021/06/26 02:41:34;;;;;;;3.05;1.40;;;16.20;95.40;;;;;;5014109;28;20060;-68
2021/06/26 02:44:38;;;;;;;3.58;1.30;;;16.20;95.60;;;;;;5033981;28;20038;-68
2021/06/26 02:47:44;;;;;;;3.33;1.20;;;16.20;95.70;;;;;;5034436;28;20519;-68
2021/06/26 02:50:49;;;;;;;3.92;1.10;;;16.20;95.70;;;;;;5033671;28;20037;-68
2021/06/26 02:53:53;;;;;;;2.70;1.33;;;16.20;96.00;;;;;;5033953;28;20399;-68
2021/06/26 02:56:57;;;;;;;3.55;1.25;;;16.20;96.30;;;;;;5033793;28;20038;-68
2021/06/26 03:00:04;;;;;;;4.90;1.75;;;16.20;96.60;;;;;;5033625;28;20052;-69
2021/06/26 03:03:09;;;;;;;4.78;1.20;;;16.20;97.00;;;;;;5033839;28;20037;-68
2021/06/26 03:06:12;;;;;;;5.70;1.50;;;16.20;97.00;;;;;;5033940;28;20034;-69
2021/06/26 03:09:17;;;;;;;5.15;1.45;;;16.30;97.10;;;;;;5033759;28;20384;-69
2021/06/26 03:12:21;;;;;;;2.97;1.23;;;16.20;97.00;;;;;;5032352;28;20049;-68
2021/06/26 03:15:25;;;;;;;5.28;1.70;;;16.20;97.10;;;;;;5024450;28;20526;-68
2021/06/26 03:18:29;;;;;;;1.83;1.20;;;16.20;97.30;;;;;;5013867;28;20053;-69
2021/06/26 03:21:33;;;;;;;5.95;1.90;;;16.10;97.20;;;;;;5013352;28;20043;-68
2021/06/26 03:24:37;;;;;;;5.05;1.35;;;16.20;97.40;;;;;;5013807;28;20497;-68
2021/06/26 03:27:42;;;;;;;2.40;1.23;;;16.20;97.40;;;;;;5013775;28;20046;-68
2021/06/26 03:30:46;;;;;;;3.72;1.30;;;16.20;97.20;;;;;;5013216;28;20499;-69
2021/06/26 03:33:51;;;;;;;5.95;1.38;;;16.10;97.30;;;;;;5013725;28;20412;-68
2021/06/26 03:36:55;;;;;;;6.47;1.20;;;16.10;97.50;;;;;;5013587;28;20520;-69
2021/06/26 03:40:00;;;;;;;3.42;1.20;;;16.00;97.50;;;;;;5013429;28;20049;-68
2021/06/26 03:43:05;;;;;;;4.50;1.10;;;16.00;97.70;;;;;;5013446;28;20049;-69
2021/06/26 03:46:10;;;;;;;3.38;1.38;;;16.00;97.60;;;;;;5013281;28;20042;-69
2021/06/26 03:49:14;;;;;;;5.90;1.50;;;16.00;97.50;;;;;;5013329;28;20036;-69
2021/06/26 03:52:18;;;;;;;3.20;1.17;;;16.00;97.40;;;;;;5012160;28;20416;-69
2021/06/26 03:55:22;;;;;;;4.68;1.23;;;16.00;97.40;;;;;;5013028;28;20255;-68
2021/06/26 03:58:27;;;;;;;1.20;0.90;;;16.00;97.40;;;;;;5012994;28;20034;-68
2021/06/26 04:01:31;;;;;;;4.20;1.27;;;16.00;97.40;;;;;;5012474;28;20046;-68
2021/06/26 04:04:36;;;;;;;2.20;1.30;;;15.90;97.60;;;;;;5012331;28;20049;-68
2021/06/26 04:07:41;;;;;;;4.63;2.85;;;15.90;97.90;;;;;;5013249;28;20048;-68
2021/06/26 04:10:46;;;;;;;8.13;3.40;;;15.90;97.80;;;;;;5012534;28;20065;-68
2021/06/26 04:13:50;;;;;;;4.10;2.42;;;15.90;97.70;;;;;;5012840;28;20037;-68
2021/06/26 04:16:54;;;;;;;2.90;1.15;;;15.90;97.80;;;;;;5012458;28;20541;-68
2021/06/26 04:19:59;;;;;;;4.43;1.50;;;16.00;97.90;;;;;;5012526;28;20045;-68
2021/06/26 04:23:03;;;;;;;4.45;1.10;;;16.10;97.60;;;;;;5012603;28;20044;-68
2021/06/26 04:26:07;;;;;;;3.13;1.20;;;16.20;97.80;;;;;;5012526;28;20045;-68
2021/06/26 04:29:11;;;;;;;3.78;1.35;;;16.20;98.20;;;;;;5012433;28;20396;-68
2021/06/26 04:32:15;;;;;;;4.88;1.58;;;17.00;98.20;;;;;;5011787;28;20503;-68
2021/06/26 04:35:21;;;;;;;7.40;1.70;;;18.90;96.00;;;;;;5012116;28;20507;-68
2021/06/26 04:38:25;;;;;;;3.10;1.95;;;21.20;93.10;;;;;;5012708;28;20365;-69
2021/06/26 04:41:29;;;;;;;3.60;2.17;;;23.20;90.50;;;;;;5011981;28;20052;-69
2021/06/26 04:44:32;;;;;;;4.93;2.30;;;24.80;86.80;;;;;;5012400;28;20042;-69
2021/06/26 04:47:39;;;;;;;6.72;3.38;;;26.00;83.30;;;;;;5022859;28;20057;-68
2021/06/26 04:50:43;;;;;;;7.10;2.72;;;26.80;81.20;;;;;;5011674;28;20041;-69
2021/06/26 04:53:48;;;;;;;7.38;3.55;;;27.60;79.40;;;;;;5012065;28;20511;-69
2021/06/26 04:56:53;;;;;;;5.57;2.70;;;28.40;78.20;;;;;;5022241;28;20403;-69
2021/06/26 04:59:57;;;;;;;4.03;2.92;;;28.80;76.80;;;;;;5022129;28;20045;-68
2021/06/26 05:03:01;;;;;;;6.85;1.85;;;28.90;76.10;;;;;;5011692;28;20407;-69
2021/06/26 05:06:05;;;;;;;2.97;1.83;;;29.40;75.70;;;;;;5011757;28;20065;-69
2021/06/26 05:09:09;;;;;;;4.28;1.40;;;29.50;75.70;;;;;;5011534;28;20053;-69
2021/06/26 05:12:13;;;;;;;3.75;1.30;;;30.00;75.20;;;;;;5011247;28;20060;-69
2021/06/26 05:15:17;;;;;;;2.83;1.20;;;30.00;75.00;;;;;;5018280;28;20302;-69
2021/06/26 05:18:21;;;;;;;3.50;1.50;;;30.20;74.00;;;;;;5031248;28;20403;-69
2021/06/26 05:21:25;;;;;;;6.75;1.73;;;30.40;74.10;;;;;;5030733;28;20044;-68
2021/06/26 05:24:29;;;;;;;3.25;1.15;;;30.90;73.70;;;;;;5030978;28;20049;-69
2021/06/26 05:27:34;;;;;;;8.25;1.88;;;31.20;72.20;;;;;;5031021;28;20046;-69
2021/06/26 05:30:38;;;;;;;9.82;1.52;;;31.10;72.40;;;;;;5030151;28;20037;-69
2021/06/26 05:33:43;;;;;;;10.65;1.63;;;30.80;72.70;;;;;;5030979;28;20045;-69
2021/06/26 05:36:48;;;;;;;7.20;1.30;;;30.80;71.90;;;;;;5030866;28;20056;-69
2021/06/26 05:39:52;;;;;;;3.40;1.20;;;31.10;71.60;;;;;;5030872;28;20060;-69
2021/06/26 05:42:56;;;;;;;3.90;1.45;;;31.40;70.90;;;;;;5030601;28;20040;-69
2021/06/26 05:45:59;;;;;;;5.45;1.25;;;31.00;71.00;;;;;;5030588;28;20037;-69
2021/06/26 05:49:03;;;;;;;3.00;1.20;;;31.10;70.30;;;;;;5030805;28;20046;-69
2021/06/26 05:52:09;;;;;;;4.43;1.00;;;30.90;70.40;;;;;;5027794;28;20377;-69
2021/06/26 05:55:13;;;;;;;2.22;1.00;;;31.10;69.70;;;;;;5025500;28;20044;-69
2021/06/26 05:58:17;;;;;;;7.88;1.70;;;31.00;68.70;;;;;;5030036;28;20043;-69
2021/06/26 06:01:21;;;;;;;8.88;2.58;;;31.20;68.40;;;;;;5029592;28;20041;-69
2021/06/26 06:04:25;;;;;;;7.90;2.90;;;29.70;68.50;;;;;;5040535;28;20029;-69
2021/06/26 06:07:30;;;;;;;6.72;2.58;;;30.30;68.10;;;;;;5027616;28;20052;-69
2021/06/26 06:10:36;;;;;;;4.75;2.35;;;30.60;67.30;;;;;;5029709;28;20041;-69
2021/06/26 06:13:40;;;;;;;4.88;1.90;;;31.00;67.10;;;;;;5029872;28;20054;-69
2021/06/26 06:16:44;;;;;;;5.13;2.05;;;31.20;66.90;;;;;;5019450;28;20038;-68
2021/06/26 06:19:48;;;;;;;3.45;1.58;;;29.50;67.80;;;;;;5009254;28;20037;-69
2021/06/26 06:22:52;;;;;;;1.85;1.08;;;27.70;70.10;;;;;;5010076;28;20370;-69
2021/06/26 06:25:58;;;;;;;1.98;1.13;;;27.40;71.80;;;;;;5010722;28;20113;-68
2021/06/26 06:29:02;;;;;;;2.95;1.20;;;26.50;73.40;;;;;;5010640;28;20047;-69
2021/06/26 06:32:06;;;;;;;3.72;1.00;;;27.10;72.30;;;;;;5012252;28;20046;-68
2021/06/26 06:35:11;;;;;;;3.28;1.02;;;27.60;70.70;;;;;;5007903;28;20053;-69
2021/06/26 06:38:15;;;;;;;2.80;0.80;;;26.60;71.30;;;;;;4999906;28;20044;-68
2021/06/26 06:41:19;;;;;;;2.70;1.00;;;27.00;72.10;;;;;;4990295;28;20030;-69
2021/06/26 06:44:23;;;;;;;6.15;0.80;;;27.60;71.20;;;;;;4990998;28;20046;-69
2021/06/26 06:47:27;;;;;;;2.30;0.90;;;29.10;70.00;;;;;;4990838;28;20046;-69
2021/06/26 06:50:31;;;;;;;6.82;0.98;;;30.50;67.50;;;;;;4997149;28;20507;-69
2021/06/26 06:53:36;;;;;;;2.47;0.82;;;31.40;66.50;;;;;;5010302;28;20049;-69
2021/06/26 06:56:39;;;;;;;4.65;1.33;;;32.10;65.60;;;;;;5001096;28;20041;-69
2021/06/26 06:59:43;;;;;;;2.50;1.02;;;32.30;65.30;;;;;;5009218;28;20050;-69
2021/06/26 07:02:47;;;;;;;2.45;1.00;;;32.80;64.70;;;;;;5009462;28;20377;-69
2021/06/26 07:05:52;;;;;;;3.40;0.85;;;32.50;64.20;;;;;;5005623;28;20488;-68
2021/06/26 07:08:56;;;;;;;1.88;0.80;;;31.30;65.40;;;;;;5008485;28;20328;-68
2021/06/26 07:12:00;;;;;;;6.13;1.33;;;28.00;69.00;;;;;;5006961;28;20051;-67
2021/06/26 07:15:06;;;;;;;4.82;1.08;;;26.30;72.30;;;;;;5015374;28;20400;-69
2021/06/26 07:18:12;;;;;;;1.90;0.70;;;27.10;72.30;;;;;;5013739;28;20034;-68
2021/06/26 07:21:16;;;;;;;3.08;1.02;;;29.10;70.10;;;;;;5008981;28;20056;-69
2021/06/26 07:24:20;;;;;;;2.15;0.95;;;30.70;67.80;;;;;;5017724;28;20048;-68
2021/06/26 07:27:24;;;;;;;3.30;1.10;;;31.20;67.20;;;;;;5028191;28;20056;-68
2021/06/26 07:30:29;;;;;;;2.00;1.02;;;31.70;67.00;;;;;;5028167;28;20041;-69
2021/06/26 07:33:33;;;;;;;5.18;0.93;;;32.90;65.40;;;;;;5030161;28;20496;-68
2021/06/26 07:36:37;;;;;;;2.28;1.00;;;34.20;63.40;;;;;;5043781;28;20045;-69
2021/06/26 07:39:41;;;;;;;3.90;1.00;;;34.70;63.00;;;;;;5029330;28;20041;-69
2021/06/26 07:42:45;;;;;;;4.85;1.00;;;35.30;62.10;;;;;;5032474;28;20038;-69
2021/06/26 07:45:49;;;;;;;2.25;0.75;;;35.50;62.20;;;;;;5025965;28;20645;-68
2021/06/26 07:48:53;;;;;;;2.50;0.90;;;36.20;60.60;;;;;;5017520;28;20041;-69
2021/06/26 07:51:58;;;;;;;1.55;0.70;;;36.30;60.20;;;;;;5012203;28;20371;-69
2021/06/26 07:55:04;;;;;;;5.03;0.80;;;36.90;59.60;;;;;;5012879;28;20037;-69
2021/06/26 07:58:08;;;;;;;3.40;0.80;;;37.50;57.90;;;;;;5013305;28;20041;-70
2021/06/26 08:01:12;;;;;;;2.28;0.82;;;37.90;58.50;;;;;;5023445;28;20062;-69
2021/06/26 08:04:16;;;;;;;4.03;0.77;;;38.60;57.40;;;;;;5012928;28;20034;-69
2021/06/26 08:07:20;;;;;;;1.60;0.60;;;39.00;57.30;;;;;;5013192;28;20487;-69
2021/06/26 08:10:24;;;;;;;1.73;0.60;;;39.60;56.00;;;;;;5011134;28;20042;-69
2021/06/26 08:13:28;;;;;;;3.80;0.88;;;39.50;55.60;;;;;;5012227;28;20049;-69
2021/06/26 08:16:33;;;;;;;4.35;0.65;;;38.00;58.40;;;;;;5030113;28;20041;-69
2021/06/26 08:19:38;;;;;;;5.00;0.70;;;35.90;57.50;;;;;;5032338;28;20045;-69
2021/06/26 08:22:42;;;;;;;1.50;0.40;;;34.30;57.80;;;;;;5032399;28;20033;-68
2021/06/26 08:25:46;;;;;;;4.13;0.50;;;33.00;55.30;;;;;;5008855;28;20053;-69
2021/06/26 08:28:50;;;;;;;4.10;0.60;;;34.50;57.60;;;;;;5013496;28;20060;-69
2021/06/26 08:31:54;;;;;;;8.07;0.90;;;36.90;57.50;;;;;;5012239;28;20046;-69
2021/06/26 08:34:58;;;;;;;1.25;0.60;;;37.70;56.30;;;;;;5022520;28;20038;-69
2021/06/26 08:38:02;;;;;;;3.53;0.90;;;38.50;55.40;;;;;;4992867;28;20041;-69
2021/06/26 08:41:07;;;;;;;3.85;0.50;;;37.90;56.40;;;;;;4992557;28;20053;-69
2021/06/26 08:44:12;;;;;;;1.05;0.40;;;39.60;54.80;;;;;;4992353;28;20050;-69
2021/06/26 08:47:18;;;;;;;1.40;0.32;;;40.30;52.30;;;;;;5007240;28;20056;-69
2021/06/26 08:50:26;;;;;;;1.05;0.40;;;41.70;50.30;;;;;;4991864;28;20046;-69
2021/06/26 08:53:30;;;;;;;0.52;0.22;;;42.50;48.80;;;;;;5005136;28;20052;-69
2021/06/26 08:56:34;;;;;;;0.38;0.20;;;42.80;48.30;;;;;;5010621;28;20049;-69
2021/06/26 08:59:40;;;;;;;0.63;0.30;;;42.70;48.30;;;;;;5011209;28;20072;-70
2021/06/26 09:02:46;;;;;;;0.85;0.45;;;42.60;49.60;;;;;;5007235;28;20057;-68
2021/06/26 09:05:50;;;;;;;12.50;1.50;;;43.50;49.00;;;;;;4991728;28;20058;-67
2021/06/26 09:08:54;;;;;;;15.82;1.08;;;44.40;48.30;;;;;;5026590;28;20391;-67
2021/06/26 09:12:04;;;;;;;0.80;0.30;;;43.50;48.00;;;;;;5031050;28;20388;-68
2021/06/26 09:15:09;;;;;;;6.35;0.55;;;44.30;47.30;;;;;;5031220;28;20046;-67
2021/06/26 09:18:20;;;;;;;1.65;0.40;;;44.60;47.40;;;;;;5031154;28;20064;-68
2021/06/26 09:24:48;;;;;;;0.40;0.22;;;45.10;45.80;;;;;;5030899;28;20048;-70
2021/06/26 09:27:52;;;;;;;0.47;0.20;;;44.00;44.50;;;;;;5030067;28;20037;-69
2021/06/26 09:30:58;;;;;;;0.55;0.22;;;42.80;44.60;;;;;;5030455;28;20052;-69
2021/06/26 09:34:04;;;;;;;0.52;0.20;;;37.50;44.00;;;;;;5021024;28;20038;-69
2021/06/26 09:37:17;;;;;;;1.15;0.40;;;38.20;45.90;;;;;;5011808;28;20048;-68
2021/06/26 09:40:28;;;;;;;0.75;0.30;;;39.40;46.40;;;;;;5011793;28;20508;-69
2021/06/26 09:43:34;;;;;;;4.50;0.32;;;41.40;45.00;;;;;;5007001;28;20049;-69
2021/06/26 09:46:46;;;;;;;8.95;0.70;;;43.60;45.20;;;;;;5009778;28;20042;-68
2021/06/26 09:49:51;;;;;;;0.75;0.40;;;43.70;45.70;;;;;;5010229;28;20057;-68
2021/06/26 09:53:02;;;;;;;1.90;0.50;;;43.90;44.90;;;;;;4980746;28;20047;-68
2021/06/26 09:56:06;;;;;;;0.75;0.28;;;44.00;46.00;;;;;;5009717;28;20982;-69
2021/06/26 09:59:12;;;;;;;0.88;0.25;;;43.30;43.70;;;;;;4994663;28;20054;-69
2021/06/26 10:02:21;;;;;;;1.40;0.40;;;41.60;43.10;;;;;;5001774;28;20050;-68
2021/06/26 10:05:27;;;;;;;1.10;0.47;;;42.30;45.40;;;;;;4996857;28;20054;-68
2021/06/26 10:08:32;;;;;;;0.95;0.47;;;39.60;44.50;;;;;;4998038;28;20607;-68
2021/06/26 10:11:39;;;;;;;3.03;0.63;;;39.70;45.40;;;;;;5001454;28;20394;-68
2021/06/26 10:14:43;;;;;;;1.35;0.43;;;42.80;45.10;;;;;;5000790;28;20053;-68
2021/06/26 10:17:49;;;;;;;0.90;0.50;;;38.60;43.70;;;;;;4999554;28;20590;-67
2021/06/26 10:20:55;;;;;;;1.90;0.40;;;39.00;45.70;;;;;;5000007;28;20040;-68
2021/06/26 10:24:01;;;;;;;2.42;0.40;;;40.60;46.90;;;;;;5009019;28;20041;-68
2021/06/26 10:27:16;;;;;;;2.00;0.43;;;42.40;45.40;;;;;;4998788;28;20045;-69
2021/06/26 10:30:23;;;;;;;1.30;0.50;;;43.70;45.10;;;;;;5000810;28;20520;-69
2021/06/26 10:33:30;;;;;;;2.60;0.52;;;41.90;45.60;;;;;;5001269;28;20045;-68
2021/06/26 10:36:39;;;;;;;3.80;0.50;;;43.20;46.70;;;;;;4997258;28;20049;-67
2021/06/26 10:39:45;;;;;;;0.85;0.50;;;38.30;47.70;;;;;;4997121;28;20057;-67
2021/06/26 10:42:49;;;;;;;2.47;0.70;;;39.20;50.20;;;;;;4992981;28;20056;-68
2021/06/26 10:46:15;;;;;;;1.98;0.52;;;39.60;48.40;;;;;;4999931;28;20045;-69
2021/06/26 10:49:29;;;;;;;1.55;0.70;;;42.30;47.50;;;;;;5009417;28;20053;-68
2021/06/26 10:52:33;;;;;;;1.52;0.60;;;39.80;47.60;;;;;;4998846;28;20045;-68
2021/06/26 10:55:38;;;;;;;2.25;0.60;;;40.90;48.10;;;;;;5000173;28;20428;-68
2021/06/26 10:58:45;;;;;;;3.42;0.47;;;41.90;47.00;;;;;;4999963;28;20049;-69
2021/06/26 11:01:58;;;;;;;2.95;0.55;;;40.70;47.50;;;;;;5000341;28;20037;-69
2021/06/26 11:05:03;;;;;;;0.80;0.40;;;42.50;46.40;;;;;;5000420;28;20042;-69
2021/06/26 11:08:19;;;;;;;6.70;0.60;;;43.70;46.20;;;;;;5004006;28;20045;-69
2021/06/26 11:11:49;;;;;;;1.50;0.50;;;44.30;46.10;;;;;;5002488;28;20041;-69
2021/06/26 11:14:55;;;;;;;2.35;0.52;;;44.30;45.10;;;;;;5007006;28;20056;-68
2021/06/26 11:17:59;;;;;;;1.88;0.60;;;37.90;46.00;;;;;;5015127;28;20030;-68
2021/06/26 11:21:05;;;;;;;0.70;0.40;;;38.10;48.60;;;;;;5002282;28;20053;-68
2021/06/26 11:24:10;;;;;;;1.35;0.30;;;36.20;46.90;;;;;;5014927;28;20040;-68
2021/06/26 11:27:20;;;;;;;1.10;0.30;;;35.50;48.20;;;;;;5010848;28;20041;-68
2021/06/26 11:30:25;;;;;;;1.67;0.73;;;36.50;50.10;;;;;;4992435;28;20061;-69
2021/06/26 11:33:35;;;;;;;2.47;0.60;;;36.40;49.30;;;;;;5004135;28;20045;-68
2021/06/26 11:36:39;;;;;;;1.20;0.55;;;37.70;49.70;;;;;;4994003;28;20061;-69
2021/06/26 11:39:44;;;;;;;2.00;0.75;;;37.50;51.20;;;;;;4993984;28;20393;-68
2021/06/26 11:43:02;;;;;;;0.70;0.50;;;39.00;48.40;;;;;;4993511;28;20504;-68
2021/06/26 11:46:12;;;;;;;1.33;0.60;;;39.20;48.80;;;;;;4994082;28;20061;-68
2021/06/26 11:49:16;;;;;;;3.47;0.80;;;38.30;50.30;;;;;;4993357;28;20050;-68
2021/06/26 11:52:20;;;;;;;1.63;0.60;;;38.50;50.60;;;;;;4993054;28;20069;-68
2021/06/26 11:55:24;;;;;;;2.70;0.60;;;38.80;50.80;;;;;;4993259;28;20504;-69
2021/06/26 11:58:46;;;;;;;4.03;0.63;;;39.10;49.60;;;;;;4993291;28;20053;-68
2021/06/26 12:01:50;;;;;;;2.50;0.55;;;37.60;50.80;;;;;;4992747;28;20057;-70
2021/06/26 12:04:56;;;;;;;5.45;1.02;;;38.00;51.40;;;;;;5003670;28;20057;-69
2021/06/26 12:08:04;;;;;;;2.67;0.70;;;38.20;51.70;;;;;;4993490;28;20045;-68
2021/06/26 12:11:16;;;;;;;1.90;0.65;;;36.60;53.00;;;;;;4992430;28;20041;-69
2021/06/26 12:14:32;;;;;;;2.72;0.70;;;37.20;53.60;;;;;;4992592;28;20385;-68
2021/06/26 12:17:36;;;;;;;1.38;0.60;;;37.70;52.00;;;;;;4992987;28;20046;-68
2021/06/26 12:20:41;;;;;;;2.45;0.70;;;38.30;52.30;;;;;;4992714;28;20396;-68
2021/06/26 12:23:47;;;;;;;3.08;0.90;;;36.10;53.80;;;;;;4992624;28;20045;-68
2021/06/26 12:27:19;;;;;;;2.15;0.80;;;37.10;53.50;;;;;;4992052;28;20053;-69
2021/06/26 12:30:25;;;;;;;2.28;0.80;;;37.80;53.00;;;;;;4992118;28;20083;-70
2021/06/26 12:33:29;;;;;;;1.58;0.80;;;38.60;52.70;;;;;;4992708;28;20053;-70
2021/06/26 12:36:34;;;;;;;3.70;1.15;;;39.20;52.30;;;;;;4992446;28;20236;-69
2021/06/26 12:39:38;;;;;;;3.40;0.90;;;39.50;52.30;;;;;;4991506;28;20369;-68
2021/06/26 12:43:02;;;;;;;1.42;1.02;;;39.50;52.20;;;;;;4992437;28;20065;-69
2021/06/26 12:46:06;;;;;;;3.97;0.93;;;39.00;50.80;;;;;;4992357;28;20053;-70
2021/06/26 12:49:40;;;;;;;1.63;0.80;;;37.10;52.70;;;;;;4992015;28;20057;-69
2021/06/26 12:52:50;;;;;;;1.80;0.70;;;33.30;54.70;;;;;;4992553;28;20046;-69
2021/06/26 12:56:19;;;;;;;2.63;0.88;;;34.30;55.20;;;;;;4992549;28;20049;-69
2021/06/26 12:59:33;;;;;;;1.70;0.65;;;34.60;55.00;;;;;;4992401;28;20085;-67
2021/06/26 13:02:39;;;;;;;1.92;0.70;;;32.30;55.80;;;;;;4992141;28;20049;-68
2021/06/26 13:05:43;;;;;;;3.53;1.08;;;32.60;58.20;;;;;;4991424;28;20356;-69
2021/06/26 13:08:50;;;;;;;5.20;0.80;;;32.20;57.80;;;;;;4992288;28;20049;-68
2021/06/26 13:11:55;;;;;;;3.70;0.82;;;33.40;57.50;;;;;;4991617;28;20049;-69
2021/06/26 13:15:02;;;;;;;1.95;0.70;;;34.10;58.10;;;;;;5001311;28;20041;-68
2021/06/26 13:18:08;;;;;;;2.20;0.70;;;35.20;57.80;;;;;;5031663;28;20491;-67
2021/06/26 13:21:13;;;;;;;5.65;0.90;;;35.50;57.70;;;;;;5031212;28;20044;-69
2021/06/26 13:24:21;;;;;;;2.72;0.80;;;35.90;55.30;;;;;;5031017;28;20048;-68
2021/06/26 13:27:25;;;;;;;3.13;0.63;;;36.70;54.20;;;;;;5031391;28;20125;-69
2021/06/26 13:30:29;;;;;;;0.90;0.60;;;36.70;54.80;;;;;;5030204;28;20052;-69
2021/06/26 13:33:34;;;;;;;2.50;0.85;;;36.80;56.00;;;;;;5031437;28;20068;-69
2021/06/26 13:36:38;;;;;;;1.83;0.80;;;36.90;55.50;;;;;;5041653;28;20060;-68
2021/06/26 13:39:42;;;;;;;2.92;0.80;;;37.10;54.20;;;;;;5030919;28;20052;-68
2021/06/26 13:42:48;;;;;;;2.72;0.80;;;36.70;55.20;;;;;;5031080;28;20263;-68
2021/06/26 13:45:52;;;;;;;3.95;1.00;;;36.70;55.20;;;;;;5030888;28;20391;-69
2021/06/26 13:48:56;;;;;;;2.53;0.80;;;36.00;54.50;;;;;;5030754;28;20064;-69
2021/06/26 13:52:00;;;;;;;2.40;0.60;;;36.30;54.50;;;;;;5030417;28;20059;-68
2021/06/26 13:55:05;;;;;;;4.85;0.80;;;36.20;56.20;;;;;;5030410;28;20064;-69
2021/06/26 13:58:10;;;;;;;3.55;0.90;;;36.40;54.40;;;;;;5030989;28;20518;-69
2021/06/26 14:01:15;;;;;;;4.03;0.80;;;36.60;55.70;;;;;;5030087;28;20048;-70
2021/06/26 14:04:19;;;;;;;3.65;1.00;;;36.60;53.80;;;;;;5030694;28;20044;-69
2021/06/26 14:07:23;;;;;;;1.80;0.70;;;35.90;54.10;;;;;;5030566;28;20511;-68
2021/06/26 14:10:29;;;;;;;2.88;0.63;;;35.70;56.20;;;;;;5029465;28;20044;-69
2021/06/26 14:13:34;;;;;;;2.70;0.90;;;35.70;55.20;;;;;;5030317;28;20045;-67
2021/06/26 14:16:37;;;;;;;2.55;1.08;;;35.50;55.80;;;;;;5012059;28;20049;-68
2021/06/26 14:19:42;;;;;;;3.78;1.00;;;32.60;57.50;;;;;;5010383;28;20036;-69
2021/06/26 14:22:47;;;;;;;2.97;0.95;;;33.50;57.10;;;;;;5010728;28;20285;-69
2021/06/26 14:25:51;;;;;;;1.55;1.02;;;34.20;58.00;;;;;;5010197;28;20049;-68
2021/06/26 14:28:55;;;;;;;1.55;0.70;;;34.80;56.70;;;;;;5009463;28;20061;-69
2021/06/26 14:31:59;;;;;;;1.88;0.80;;;35.30;56.70;;;;;;5010142;28;20040;-69
2021/06/26 14:35:05;;;;;;;3.20;0.90;;;35.40;56.90;;;;;;5010386;28;20068;-68
2021/06/26 14:38:10;;;;;;;2.80;0.80;;;35.60;57.30;;;;;;5010482;28;20049;-68
2021/06/26 14:41:15;;;;;;;1.58;0.70;;;35.30;56.40;;;;;;5009298;28;20048;-69
2021/06/26 14:44:22;;;;;;;1.02;0.60;;;33.60;58.50;;;;;;5010556;28;20053;-69
2021/06/26 14:47:26;;;;;;;1.50;0.80;;;33.80;59.10;;;;;;5010123;28;20061;-69
2021/06/26 14:50:30;;;;;;;1.90;0.85;;;34.20;57.60;;;;;;5009457;28;20049;-69
2021/06/26 14:53:36;;;;;;;2.33;1.00;;;34.30;59.70;;;;;;5009388;28;20053;-67
2021/06/26 14:56:40;;;;;;;2.15;0.90;;;34.50;57.80;;;;;;5010003;28;20044;-67
2021/06/26 14:59:45;;;;;;;10.52;1.75;;;34.50;58.70;;;;;;5009342;28;20052;-68
2021/06/26 15:02:50;;;;;;;2.70;0.90;;;34.30;57.60;;;;;;5010238;28;20045;-68
2021/06/26 15:05:55;;;;;;;1.60;0.93;;;34.10;59.10;;;;;;5009702;28;20044;-67
2021/06/26 15:09:00;;;;;;;3.38;0.90;;;33.90;59.20;;;;;;5010000;28;20045;-68
2021/06/26 15:12:05;;;;;;;7.68;1.30;;;33.90;58.20;;;;;;5019677;28;20041;-69
2021/06/26 15:15:10;;;;;;;7.40;1.38;;;33.60;58.80;;;;;;5015654;28;20523;-69
2021/06/26 15:18:14;;;;;;;4.13;0.85;;;33.60;58.20;;;;;;5029792;28;20044;-68
2021/06/26 15:21:19;;;;;;;6.53;1.10;;;33.80;58.90;;;;;;5028662;28;20044;-67
2021/06/26 15:24:23;;;;;;;4.90;0.75;;;33.80;58.20;;;;;;5030041;28;20048;-68
2021/06/26 15:27:27;;;;;;;4.65;1.02;;;33.50;59.30;;;;;;5040386;28;20399;-68
2021/06/26 15:30:31;;;;;;;13.90;1.33;;;33.40;59.50;;;;;;5029088;28;20048;-68
2021/06/26 15:33:37;;;;;;;4.18;1.00;;;33.40;58.20;;;;;;5030122;28;20498;-68
2021/06/26 15:36:41;;;;;;;9.25;1.17;;;33.40;58.80;;;;;;5029841;28;20384;-67
2021/06/26 15:39:45;;;;;;;7.72;1.65;;;33.10;58.50;;;;;;5029565;28;20247;-68
2021/06/26 15:42:49;;;;;;;3.85;0.75;;;33.20;59.50;;;;;;5029576;28;20051;-68
2021/06/26 15:45:54;;;;;;;7.13;1.20;;;33.10;59.40;;;;;;5028602;28;20052;-68
2021/06/26 15:48:59;;;;;;;5.35;1.20;;;32.60;61.10;;;;;;5031505;28;20045;-68
2021/06/26 15:52:04;;;;;;;2.08;0.90;;;32.60;60.70;;;;;;5032608;28;20048;-67
2021/06/26 15:55:10;;;;;;;2.28;1.08;;;32.60;59.60;;;;;;5032671;28;20081;-68
2021/06/26 15:58:14;;;;;;;6.57;1.05;;;32.40;59.70;;;;;;5043613;28;20040;-68
2021/06/26 16:01:19;;;;;;;1.33;0.80;;;32.30;61.20;;;;;;5032297;28;20048;-68
2021/06/26 16:04:25;;;;;;;3.85;1.10;;;32.40;60.50;;;;;;5032804;28;20037;-68
2021/06/26 16:07:29;;;;;;;6.82;1.00;;;32.20;60.30;;;;;;5032396;28;20041;-68